Aviation Digital Data Service (ADDS)

Output produced by METARs form (1919 UTC 18 April 2019)
found at http://www.aviationweather.gov/metar/data/
 
Forecast for: EFOU (OULU/ULEABORG , FI)
Text: TAF EFOU 181734Z 1818/1918 28005KT CAVOK
Forecast period: 1800 UTC 18 April 2019 to 1800 UTC 19 April 2019
Forecast type: FROM: standard forecast or significant change
Winds: from the W (280 degrees) at 6 MPH (5 knots; 2.6 m/s)
Visibility: 6 or more miles 10+ km)
Ceiling: unknown
Clouds: missing
Weather: NSW  (no significant weather)